EPGD/GDN METAR and TAF weather

Enter ICAO airport designator
Station Type Date Time Source
EPGD METAR 2021/01/16 02:30 UTC NOAA

EPGD 160230Z 30009KT 8000 -SHSN FEW007 SCT013CB BKN026 M04/M04 Q1017 RESHSN R11/490295


Station Type Date Time Source
EPGD Decoded METAR 2021/01/16 02:30 UTC NOAA

Gdansk-Rebiechowo, Poland (EPGD) 54-23N 018-28E 138M
Jan 15, 2021 - 09:30 PM EST / 2021.01.16 0230 UTC
Wind: from the WNW (300 degrees) at 10 MPH (9 KT):0
Visibility: 4 mile(s):0
Sky conditions: mostly cloudy
Weather: light snow showers; Cumulonimbus clouds observed
Temperature: 24 F (-4 C)
Windchill: 14 F (-10 C):1
Dew Point: 24 F (-4 C)
Relative Humidity: 100%
Pressure (altimeter): 30.03 in. Hg (1017 hPa)
ob: EPGD 160230Z 30009KT 8000 -SHSN FEW007 SCT013CB BKN026 M04/M04 Q1017 RESHSN R11/490295
cycle: 2

Station Type Date Time Source
EPGD TAF 2021/01/16 01:57 UTC NOAA

TAF
AMD EPGD 160139Z 1601/1624 30008KT 7000 -SN SCT020 BKN040
TEMPO 1601/1619 2000 SHSN BKN007 BKN012CB PROB40
TEMPO 1601/1608 0800 +SHSN BKN002 BKN005CB PROB30
TEMPO 1601/1617 0300 +SHSN BKN001 PROB40
TEMPO 1608/1613 33017G30KT 0800 +SHSN BLSN BKN002 BKN005CB
BECMG 1611/1614 02010KT PROB40
TEMPO 1613/1617 04017G30KT 0800 +SHSN BLSN BKN002 BKN005CB

Example: see airport list